Arab, Alabama
Current Conditions -  °F | °C
As of 9:15 PM on Friday 31 Oct 2014 (Local Time) from K8A0 Reporting Station
Scattered Clouds Scattered Clouds  
Wind Chill: 28°   Ceiling: Unl
Heat Index: 37°   Visibility: 10mi
Dew Point: 32°   Wind: 16mph
Humidity: 81%   Direction: 330°NNW
Pressure: 30.1"   Gusts: 31mph
Location:  34.32°N, 86.49°W
Report Text: K8A0 010215Z AUTO 33014G27KT 10SM SCT042 03/00 A3010 RMK AO2
Loading
Personal Weather Stations






























Interactive Weather Map
Tropical Storm Tracking
New forecast layout! Learn more

10-Day Weather Forecast

Advertisements
Track Severe Weather on mobile